Data for 03/28/2009

Time Sea-Level Adjusted Pressure Absolute Pressure Temperature Relative Humidity Dew Point   
(mb) (inHg) (mb) (inHg) (C) (F) (%) (C) (F)
00:05 1016 30 845 24.95 1.7 35 53 -6.9 19.5
00:10 1016 30 845 24.95 1.6 34.8 54 -6.8 19.7
00:15 1015 29.97 845 24.95 1.5 34.7 54 -6.9 19.6
00:20 1015 29.97 845 24.95 1.3 34.4 56 -6.5 20.3
00:25 1015 29.97 845 24.95 1 33.8 59 -6.2 20.9
00:30 1015 29.97 845 24.95 0.6 33.1 59 -6.5 20.3
00:35 1015 29.97 845 24.95 0.6 33 59 -6.6 20.1
00:40 1015 29.97 844 24.92 0.6 33.1 59 -6.5 20.3
00:45 1015 29.97 845 24.95 -0 31.9 63 -6.3 20.7
00:50 1015 29.97 845 24.95 -0.3 31.4 62 -6.8 19.7
00:55 1015 29.97 844 24.92 -0.4 31.3 62 -6.8 19.7
01:00 1015 29.97 844 24.92 -0.1 31.8 61 -6.8 19.8
01:05 1015 29.97 844 24.92 0.1 32.2 59 -7 19.5
01:10 1015 29.97 844 24.92 0.3 32.5 60 -6.5 20.3
01:15 1015 29.97 844 24.92 0.2 32.4 60 -6.8 19.8
01:20 1015 29.97 844 24.92 0.2 32.3 63 -6 21.2
01:25 1015 29.97 844 24.92 -0.1 31.9 63 -6.3 20.6
01:30 1015 29.97 844 24.92 -0.2 31.6 62 -6.6 20.1
01:35 1015 29.97 844 24.92 -0.2 31.7 60 -7 19.3
01:40 1015 29.97 844 24.92 0.1 32.1 62 -6.3 20.7
01:45 1015 29.97 844 24.92 -0.1 31.9 63 -6.2 20.8
01:50 1015 29.97 844 24.92 -0.3 31.5 65 -6.2 20.9
01:55 1015 29.97 844 24.92 -0.4 31.3 65 -6.2 20.8
02:00 1015 29.97 844 24.92 -0.6 31 65 -6.3 20.6
02:05 1015 29.97 844 24.92 -0.4 31.3 62 -6.8 19.8
02:10 1015 29.97 844 24.92 -0.1 31.7 62 -6.5 20.3
02:15 1015 29.97 844 24.92 0.1 32.1 64 -5.9 21.3
02:20 1015 29.97 844 24.92 -0.1 31.8 64 -6.2 20.9
02:25 1015 29.97 844 24.92 -0 31.9 66 -5.7 21.7
02:30 1015 29.97 844 24.92 -0.3 31.5 67 -5.8 21.6
02:35 1015 29.97 844 24.92 -0.4 31.3 64 -6.4 20.4
02:40 1015 29.97 844 24.92 -0.2 31.6 63 -6.4 20.5
02:45 1015 29.97 844 24.92 -0.1 31.8 65 -6 21.2
02:50 1015 29.97 844 24.92 -0.3 31.5 66 -5.9 21.5
02:55 1015 29.97 844 24.92 -0.5 31.1 67 -5.9 21.3
03:00 1015 29.97 844 24.92 -0.5 31.1 66 -6.1 21
03:05 1015 29.97 844 24.92 -0.4 31.3 63 -6.6 20.2
03:10 1015 29.97 844 24.92 -0.1 31.9 63 -6.3 20.6
03:15 1015 29.97 844 24.92 -0.1 31.8 63 -6.4 20.4
03:20 1015 29.97 844 24.92 0.2 32.3 59 -6.8 19.7
03:25 1015 29.97 844 24.92 0.5 32.8 60 -6.4 20.4
03:30 1015 29.97 844 24.92 0.2 32.4 60 -6.6 20
03:35 1015 29.97 844 24.92 0.2 32.3 62 -6.3 20.6
03:40 1014 29.94 844 24.92 0.2 32.3 62 -6.3 20.6
03:45 1014 29.94 843 24.89 0.1 32.2 63 -6.2 20.9
03:50 1014 29.94 843 24.89 0.1 32.2 62 -6.3 20.7
03:55 1014 29.94 843 24.89 0.3 32.5 61 -6.4 20.6
04:00 1014 29.94 843 24.89 0.5 32.9 60 -6.4 20.5
04:05 1014 29.94 843 24.89 0.9 33.7 57 -6.6 20.1
04:10 1014 29.94 843 24.89 1.1 34 58 -6.3 20.7
04:15 1014 29.94 843 24.89 1 33.8 58 -6.4 20.4
04:20 1014 29.94 843 24.89 0.9 33.7 58 -6.3 20.6
04:25 1014 29.94 843 24.89 0.8 33.4 60 -6.1 21.1
04:30 1014 29.94 843 24.89 0.5 32.9 61 -6.1 20.9
04:35 1013 29.91 843 24.89 0.4 32.8 62 -6 21.1
04:40 1013 29.91 842 24.86 0.6 33 62 -6 21.2
04:45 1013 29.91 842 24.86 0.6 33.1 60 -6.3 20.6
04:50 1013 29.91 842 24.86 1 33.7 57 -6.7 20
04:55 1013 29.91 842 24.86 1.2 34.1 56 -6.7 19.9
05:00 1013 29.91 842 24.86 1.4 34.6 53 -7.2 19
05:05 1013 29.91 842 24.86 2 35.6 49 -7.5 18.4
05:10 1013 29.91 842 24.86 2.2 35.9 50 -7.3 18.9
05:15 1013 29.91 842 24.86 2.1 35.8 50 -7.1 19.2
05:20 1013 29.91 842 24.86 2 35.6 51 -7 19.4
05:25 1013 29.91 842 24.86 1.9 35.4 53 -6.6 20.2
05:30 1013 29.91 842 24.86 1.7 35.1 54 -6.7 19.9
05:35 1013 29.91 842 24.86 2.1 35.7 49 -7.5 18.6
05:40 1013 29.91 842 24.86 2.4 36.2 51 -6.9 19.6
05:45 1013 29.91 842 24.86 2.3 36.2 50 -7.1 19.3
05:50 1013 29.91 842 24.86 2.3 36.2 49 -7.3 18.8
05:55 1013 29.91 842 24.86 2.4 36.4 51 -6.7 19.9
06:00 1013 29.91 842 24.86 2.2 36 52 -6.7 19.9
06:05 1013 29.91 842 24.86 2.1 35.8 52 -6.8 19.7
06:10 1013 29.91 842 24.86 2.1 35.8 52 -6.9 19.6
06:15 1013 29.91 842 24.86 2 35.7 52 -6.7 19.9
06:20 1013 29.91 842 24.86 2.2 35.9 50 -7.1 19.2
06:25 1013 29.91 842 24.86 2.4 36.4 49 -7.2 19
06:30 1012 29.88 842 24.86 2.6 36.7 48 -7.4 18.7
06:35 1012 29.88 842 24.86 2.6 36.8 48 -7.3 18.8
06:40 1012 29.88 842 24.86 2.6 36.8 49 -7.1 19.2
06:45 1012 29.88 842 24.86 2.6 36.6 49 -7.1 19.2
06:50 1012 29.88 842 24.86 2.6 36.6 49 -7.1 19.2
06:55 1012 29.88 842 24.86 2.6 36.6 49 -7.1 19.3
07:00 1012 29.88 842 24.86 2.5 36.5 49 -7.1 19.2
07:05 1012 29.88 842 24.86 2.5 36.6 49 -7.1 19.2
07:10 1012 29.88 842 24.86 2.5 36.6 51 -6.6 20.1
07:15 1012 29.88 842 24.86 2.3 36.1 53 -6.5 20.4
07:20 1012 29.88 842 24.86 2.1 35.8 51 -6.9 19.5
07:25 1012 29.88 842 24.86 2.3 36.1 51 -7 19.5
07:30 1012 29.88 842 24.86 2.3 36.1 51 -6.9 19.6
07:35 1012 29.88 842 24.86 2.3 36.1 49 -7.2 19
07:40 1012 29.88 842 24.86 2.4 36.3 51 -6.8 19.7
07:45 1012 29.88 842 24.86 2.5 36.5 50 -7 19.5
07:50 1012 29.88 841 24.83 2.5 36.5 50 -7 19.4
07:55 1012 29.88 841 24.83 2.6 36.7 48 -7.2 19.1
08:00 1012 29.88 841 24.83 2.7 36.8 48 -7.2 19.1
08:05 1012 29.88 841 24.83 2.6 36.8 49 -7 19.4
08:10 1012 29.88 841 24.83 2.6 36.7 49 -7.1 19.2
08:15 1012 29.88 841 24.83 2.6 36.6 50 -6.9 19.5
08:20 1012 29.88 841 24.83 2.6 36.7 51 -6.7 20
08:25 1012 29.88 841 24.83 2.6 36.6 50 -6.7 19.9
08:30 1012 29.88 841 24.83 2.6 36.7 51 -6.5 20.3
08:35 1012 29.88 841 24.83 2.6 36.7 52 -6.3 20.6
08:40 1012 29.88 841 24.83 2.6 36.7 53 -6.1 21.1
08:45 1012 29.88 841 24.83 2.5 36.6 52 -6.4 20.5
08:50 1012 29.88 841 24.83 2.6 36.7 51 -6.5 20.3
08:55 1012 29.88 841 24.83 2.7 36.8 52 -6.3 20.7
09:00 1012 29.88 841 24.83 2.8 37 51 -6.3 20.6
09:05 1012 29.88 841 24.83 2.7 36.9 52 -6.2 20.8
09:10 1012 29.88 841 24.83 2.7 36.8 52 -6.1 20.9
09:15 1012 29.88 841 24.83 2.7 36.9 51 -6.5 20.3
09:20 1012 29.88 841 24.83 2.8 37 52 -6.1 21.1
09:25 1012 29.88 841 24.83 2.9 37.2 51 -6.4 20.6
09:30 1012 29.88 841 24.83 3 37.5 48 -7 19.3
09:35 1012 29.88 841 24.83 3.3 37.9 48 -6.7 19.9
09:40 1012 29.88 841 24.83 3.3 38 49 -6.5 20.3
09:45 1012 29.88 841 24.83 3.3 37.9 49 -6.5 20.2
09:50 1012 29.88 841 24.83 3.3 38 49 -6.5 20.3
09:55 1012 29.88 841 24.83 3.5 38.3 48 -6.6 20.1
10:00 1012 29.88 841 24.83 3.5 38.3 47 -6.8 19.8
10:05 1012 29.88 841 24.83 3.7 38.6 45 -7.2 19
10:10 1012 29.88 841 24.83 3.8 38.8 48 -6.3 20.7
10:15 1012 29.88 841 24.83 3.9 38.9 47 -6.6 20.2
10:20 1012 29.88 841 24.83 4 39.2 48 -6 21.1
10:25 1012 29.88 841 24.83 3.9 39.1 46 -6.7 20
10:30 1012 29.88 841 24.83 4.1 39.3 48 -6.1 21
10:35 1012 29.88 841 24.83 4.1 39.4 45 -6.7 20
10:40 1012 29.88 841 24.83 4.2 39.6 45 -6.7 19.9
10:45 1012 29.88 841 24.83 4.3 39.8 45 -6.6 20.1
10:50 1012 29.88 841 24.83 4.3 39.8 45 -6.6 20.2
10:55 1012 29.88 841 24.83 4.4 39.9 44 -6.7 20
11:00 1012 29.88 841 24.83 4.4 40 44 -6.8 19.8
11:05 1012 29.88 841 24.83 4.4 40 44 -6.7 19.9
11:10 1012 29.88 841 24.83 4.4 40 46 -6.3 20.7
11:15 1012 29.88 841 24.83 4.5 40.2 44 -6.5 20.2
11:20 1012 29.88 841 24.83 4.7 40.4 45 -6.2 20.8
11:25 1012 29.88 841 24.83 4.7 40.5 44 -6.6 20
11:30 1012 29.88 841 24.83 4.8 40.7 43 -6.7 20
11:35 1012 29.88 841 24.83 4.9 40.7 44 -6.2 20.8
11:40 1012 29.88 841 24.83 4.9 40.9 44 -6.2 20.9
11:45 1012 29.88 841 24.83 4.9 40.7 45 -6 21.3
11:50 1012 29.88 841 24.83 4.8 40.7 43 -6.6 20.1
11:55 1012 29.88 841 24.83 4.7 40.5 43 -6.8 19.8
12:00 1011 29.85 841 24.83 4.7 40.5 45 -6.3 20.7
12:05 1011 29.85 841 24.83 4.9 40.8 45 -6.2 20.8
12:10 1011 29.85 841 24.83 4.9 40.7 44 -6.4 20.4
12:15 1011 29.85 841 24.83 4.9 40.9 44 -6.4 20.4
12:20 1011 29.85 841 24.83 4.9 40.8 44 -6.4 20.5
12:25 1011 29.85 840 24.81 4.8 40.7 44 -6.3 20.6
12:30 1011 29.85 840 24.81 5 41 44 -6.1 21
12:35 1011 29.85 840 24.81 5 41 42 -6.8 19.7
12:40 1011 29.85 840 24.81 5.1 41.2 45 -5.9 21.4
12:45 1011 29.85 840 24.81 5.2 41.4 45 -5.6 21.9
12:50 1011 29.85 840 24.81 5.3 41.5 43 -6.2 20.9
12:55 1011 29.85 840 24.81 5.3 41.5 44 -6 21.2
13:00 1011 29.85 840 24.81 5.5 41.9 43 -6.1 21
13:05 1011 29.85 840 24.81 5.5 41.9 44 -5.8 21.6
13:10 1011 29.85 840 24.81 5.4 41.8 44 -5.7 21.7
13:15 1011 29.85 840 24.81 5.5 42 43 -6 21.2
13:20 1011 29.85 840 24.81 6 42.8 44 -5.5 22.2
13:25 1011 29.85 840 24.81 6.5 43.6 41 -5.7 21.7
13:30 1011 29.85 840 24.81 6.6 43.9 41 -5.8 21.6
13:35 1011 29.85 840 24.81 6.6 43.8 40 -6.2 20.8
13:40 1011 29.85 840 24.81 6.7 44 39 -6.2 20.9
13:45 1011 29.85 840 24.81 6.8 44.2 39 -6.2 20.9
13:50 1011 29.85 840 24.81 6.6 43.9 40 -5.9 21.3
13:55 1011 29.85 840 24.81 6.2 43.1 42 -5.9 21.4
14:00 1010 29.83 840 24.81 6.1 43 41 -6.3 20.6
14:05 1010 29.83 840 24.81 6.3 43.4 43 -5.2 22.6
14:10 1010 29.83 840 24.81 6 42.8 43 -5.6 21.9
14:15 1010 29.83 840 24.81 5.8 42.5 45 -5.3 22.5
14:20 1010 29.83 839 24.78 5.5 42 47 -4.8 23.4
14:25 1010 29.83 839 24.78 5.7 42.3 47 -4.8 23.3
14:30 1010 29.83 839 24.78 6.3 43.3 43 -5.3 22.5
14:35 1010 29.83 839 24.78 6.3 43.3 42 -5.7 21.7
14:40 1010 29.83 839 24.78 6 42.8 47 -4.6 23.7
14:45 1010 29.83 839 24.78 6 42.7 45 -5.2 22.6
14:50 1010 29.83 839 24.78 6.4 43.6 43 -5.2 22.6
14:55 1010 29.83 839 24.78 6.7 44.1 44 -4.6 23.8
15:00 1009 29.8 839 24.78 6.8 44.2 45 -4.2 24.4
15:05 1009 29.8 839 24.78 6.9 44.5 45 -4.3 24.3
15:10 1009 29.8 839 24.78 7.3 45.1 43 -4.6 23.7
15:15 1009 29.8 839 24.78 7.2 45 46 -3.7 25.3
15:20 1009 29.8 839 24.78 6.4 43.5 47 -4 24.7
15:25 1009 29.8 838 24.75 6.1 43 49 -3.9 25
15:30 1009 29.8 839 24.78 6.1 43 47 -4.2 24.4
15:35 1009 29.8 838 24.75 5.8 42.4 47 -4.5 23.8
15:40 1009 29.8 838 24.75 5.7 42.2 49 -4.2 24.4
15:45 1009 29.8 838 24.75 6 42.7 48 -4.1 24.6
15:50 1009 29.8 838 24.75 6.1 42.9 47 -4.5 23.9
15:55 1009 29.8 838 24.75 6.3 43.3 47 -4.2 24.4
16:00 1009 29.8 838 24.75 6.3 43.4 47 -4 24.7
16:05 1009 29.8 838 24.75 6.5 43.7 48 -3.8 25.2
16:10 1009 29.8 838 24.75 6.3 43.4 51 -3.1 26.3
16:15 1009 29.8 838 24.75 6.4 43.6 52 -2.6 27.3
16:20 1009 29.8 838 24.75 6.2 43.2 54 -2.5 27.6
16:25 1009 29.8 838 24.75 5.9 42.6 55 -2.5 27.6
16:30 1009 29.8 838 24.75 5.6 42 57 -2.2 28
16:35 1009 29.8 838 24.75 5.3 41.6 58 -2.3 27.8
16:40 1009 29.8 838 24.75 5.2 41.4 58 -2.4 27.6
16:45 1009 29.8 838 24.75 5.4 41.6 58 -2.3 27.8
16:50 1009 29.8 838 24.75 5.5 41.9 58 -2 28.4
16:55 1008 29.77 838 24.75 5.4 41.7 59 -2 28.4
17:00 1008 29.77 838 24.75 5.5 41.8 60 -1.7 28.9
17:05 1008 29.77 838 24.75 5.2 41.4 60 -2 28.4
17:10 1008 29.77 838 24.75 5.2 41.4 59 -2.2 28.1
17:15 1008 29.77 838 24.75 5.5 41.9 59 -2 28.4
17:20 1008 29.77 838 24.75 5.9 42.5 54 -2.8 26.9
17:25 1008 29.77 838 24.75 5.8 42.5 54 -2.8 27
17:30 1008 29.77 837 24.72 5.7 42.3 56 -2.3 27.8
17:35 1008 29.77 837 24.72 5.4 41.8 65 -0.7 30.7
17:40 1008 29.77 837 24.72 4.4 39.9 68 -1 30.1
17:45 1008 29.77 837 24.72 4.4 39.8 69 -0.9 30.4
17:50 1008 29.77 837 24.72 4.4 40 69 -0.8 30.6
17:55 1008 29.77 837 24.72 4.5 40.2 66 -1.2 29.8
18:00 1008 29.77 837 24.72 4.3 39.8 67 -1.3 29.6
18:05 1008 29.77 837 24.72 4.6 40.3 66 -1.3 29.7
18:10 1008 29.77 837 24.72 4.6 40.2 68 -0.9 30.3
18:15 1008 29.77 837 24.72 4.2 39.5 69 -0.9 30.3
18:20 1008 29.77 837 24.72 4.1 39.3 69 -1 30.2
18:25 1008 29.77 837 24.72 4.1 39.3 70 -0.9 30.4
18:30 1007 29.74 837 24.72 4.2 39.5 70 -0.8 30.5
18:35 1007 29.74 837 24.72 4 39.2 71 -0.7 30.7
18:40 1007 29.74 837 24.72 3.8 38.9 73 -0.7 30.8
18:45 1007 29.74 836 24.69 3.7 38.7 73 -0.6 30.9
18:50 1007 29.74 836 24.69 3.8 38.8 73 -0.6 30.9
18:55 1007 29.74 836 24.69 3.8 38.8 73 -0.6 30.9
19:00 1007 29.74 836 24.69 3.8 38.9 72 -0.7 30.7
19:05 1007 29.74 836 24.69 3.8 38.8 72 -0.7 30.7
19:10 1007 29.74 836 24.69 3.8 38.8 73 -0.6 30.9
19:15 1007 29.74 836 24.69 3.8 38.8 73 -0.7 30.7
19:20 1007 29.74 836 24.69 3.6 38.5 74 -0.6 30.9
19:25 1007 29.74 836 24.69 3.5 38.3 75 -0.6 31
19:30 1007 29.74 836 24.69 3.4 38.1 76 -0.4 31.2
19:35 1006 29.71 836 24.69 3.2 37.7 77 -0.4 31.3
19:40 1006 29.71 836 24.69 3 37.5 78 -0.5 31.1
19:45 1006 29.71 835 24.66 3.1 37.5 78 -0.5 31.1
19:50 1006 29.71 835 24.66 3.1 37.5 78 -0.4 31.3
19:55 1006 29.71 835 24.66 3 37.4 78 -0.4 31.3
20:00 1006 29.71 835 24.66 2.9 37.3 79 -0.4 31.3
20:05 1006 29.71 835 24.66 2.9 37.2 78 -0.5 31
20:10 1006 29.71 835 24.66 3 37.3 78 -0.5 31.1
20:15 1006 29.71 835 24.66 2.9 37.3 78 -0.5 31.1
20:20 1006 29.71 835 24.66 3 37.3 78 -0.6 31
20:25 1006 29.71 835 24.66 2.9 37.3 78 -0.6 30.9
20:30 1006 29.71 835 24.66 2.9 37.1 78 -0.6 30.9
20:35 1005 29.68 835 24.66 2.9 37.2 78 -0.6 30.9
20:40 1005 29.68 835 24.66 2.9 37.2 77 -0.7 30.8
20:45 1005 29.68 835 24.66 3 37.4 77 -0.7 30.7
20:50 1005 29.68 834 24.63 2.9 37.3 77 -0.8 30.6
20:55 1005 29.68 834 24.63 3 37.3 77 -0.8 30.6
21:00 1005 29.68 834 24.63 2.8 37 78 -0.7 30.7
21:05 1005 29.68 834 24.63 2.7 36.8 78 -0.8 30.5
21:10 1005 29.68 834 24.63 2.7 36.8 77 -0.9 30.4
21:15 1005 29.68 834 24.63 2.7 36.9 77 -0.9 30.4
21:20 1005 29.68 834 24.63 2.8 37 76 -1 30.3
21:25 1005 29.68 834 24.63 2.8 37 77 -0.9 30.3
21:30 1004 29.65 834 24.63 2.8 37.1 76 -0.9 30.4
21:35 1004 29.65 834 24.63 2.8 37.1 76 -0.9 30.4
21:40 1004 29.65 834 24.63 2.8 37 76 -0.9 30.3
21:45 1004 29.65 833 24.6 2.8 37 76 -0.9 30.3
21:50 1004 29.65 833 24.6 2.8 37 77 -0.9 30.3
21:55 1004 29.65 833 24.6 2.7 36.8 77 -0.9 30.4
22:00 1004 29.65 833 24.6 2.6 36.7 78 -0.9 30.4
22:05 1004 29.65 833 24.6 2.5 36.5 78 -1 30.3
22:10 1004 29.65 833 24.6 2.5 36.6 78 -1 30.3
22:15 1003 29.62 833 24.6 2.6 36.6 78 -0.9 30.3
22:20 1003 29.62 833 24.6 2.5 36.6 78 -1 30.2
22:25 1003 29.62 832 24.57 2.6 36.6 77 -1.1 30.1
22:30 1003 29.62 832 24.57 2.5 36.6 78 -1 30.3
22:35 1003 29.62 832 24.57 2.5 36.5 77 -1.1 30.1
22:40 1003 29.62 832 24.57 2.5 36.5 77 -1.1 30.1
22:45 1003 29.62 832 24.57 2.5 36.6 76 -1.3 29.7
22:50 1003 29.62 832 24.57 2.7 36.8 75 -1.3 29.6
22:55 1003 29.62 832 24.57 2.7 36.9 75 -1.2 29.8
23:00 1003 29.62 832 24.57 2.7 36.9 74 -1.4 29.5
23:05 1003 29.62 832 24.57 2.9 37.2 73 -1.5 29.3
23:10 1003 29.62 832 24.57 3 37.4 72 -1.6 29.2
23:15 1003 29.62 832 24.57 3.1 37.5 72 -1.5 29.2
23:20 1002 29.59 832 24.57 3.1 37.6 70 -1.8 28.8
23:25 1002 29.59 831 24.54 3.3 38 69 -1.8 28.8
23:30 1002 29.59 831 24.54 3.4 38.1 69 -1.7 28.9
23:35 1002 29.59 831 24.54 3.4 38 70 -1.7 29
23:40 1002 29.59 831 24.54 3.3 38 70 -1.6 29.1
23:45 1002 29.59 831 24.54 3.3 37.9 71 -1.5 29.2
23:50 1002 29.59 831 24.54 3.2 37.8 71 -1.5 29.3
23:55 1002 29.59 831 24.54 3.2 37.7 71 -1.5 29.3
24:00 1001 29.56 831 24.54 3.2 37.7 72 -1.4 29.4